createdAt,value
2022-12-27T00:03:15.714Z,9.1
2022-12-27T00:08:52.492Z,9
2022-12-27T00:14:13.900Z,9
2022-12-27T00:20:10.618Z,9.1
2022-12-27T00:25:31.567Z,9
2022-12-27T00:31:03.921Z,8.9
2022-12-27T00:36:52.222Z,8.9
2022-12-27T00:42:14.268Z,8.9
2022-12-27T00:47:36.480Z,8.8
2022-12-27T00:53:07.717Z,8.7
2022-12-27T00:58:57.411Z,8.8
2022-12-27T01:04:30.754Z,8.8
2022-12-27T01:10:09.199Z,8.9
2022-12-27T01:15:42.629Z,9
2022-12-27T01:20:47.424Z,8.9
2022-12-27T01:26:26.905Z,8.9
2022-12-27T01:32:00.162Z,8.9
2022-12-27T01:37:52.091Z,8.7
2022-12-27T01:43:18.023Z,8.9
2022-12-27T01:48:36.606Z,8.8
2022-12-27T01:54:05.193Z,8.8
2022-12-27T01:59:50.292Z,8.8
2022-12-27T02:05:19.304Z,8.7
2022-12-27T02:11:07.791Z,8.7
2022-12-27T02:16:41.601Z,8.8
2022-12-27T02:21:54.326Z,8.8
2022-12-27T02:27:27.155Z,8.7
2022-12-27T02:33:15.783Z,8.8
2022-12-27T02:38:30.635Z,8.5
2022-12-27T02:44:17.244Z,8.4
2022-12-27T02:49:39.683Z,8.5
2022-12-27T02:55:09.520Z,8.3
2022-12-27T03:00:41.492Z,8.4
2022-12-27T03:06:33.256Z,8.1
2022-12-27T03:12:12.401Z,8.3
2022-12-27T03:17:34.651Z,7.7
2022-12-27T03:23:18.259Z,7.6
2022-12-27T03:28:44.366Z,7.4
2022-12-27T03:33:55.913Z,7.6
2022-12-27T03:39:49.335Z,7.9
2022-12-27T03:45:08.708Z,8
2022-12-27T03:50:55.932Z,8
2022-12-27T03:56:32.271Z,8.1
2022-12-27T04:01:40.347Z,8.3
2022-12-27T04:07:24.806Z,8.2
2022-12-27T04:13:02.039Z,8.1
2022-12-27T04:18:18.703Z,8
2022-12-27T04:24:13.816Z,8
2022-12-27T04:29:37.936Z,8.1
2022-12-27T04:34:58.848Z,8.2
2022-12-27T04:40:27.606Z,8.3
2022-12-27T04:46:05.844Z,8.5
2022-12-27T04:51:52.681Z,8.3
2022-12-27T04:57:13.299Z,8.3
2022-12-27T05:02:53.139Z,8.6
2022-12-27T05:08:23.675Z,8.4
2022-12-27T05:13:59.450Z,8.3
2022-12-27T05:19:35.857Z,7.7
2022-12-27T05:25:11.316Z,7.2
2022-12-27T05:30:38.903Z,7.2
2022-12-27T05:36:16.967Z,7.2
2022-12-27T05:41:25.823Z,7.1
2022-12-27T05:47:19.209Z,7
2022-12-27T05:52:53.350Z,6.9
2022-12-27T05:58:19.412Z,6.8
2022-12-27T06:03:38.937Z,6.8
2022-12-27T06:09:23.412Z,6.7
2022-12-27T06:14:35.710Z,6.3
2022-12-27T06:20:06.152Z,6.1
2022-12-27T06:25:57.375Z,5.9
2022-12-27T06:31:22.360Z,6.2
2022-12-27T06:36:49.551Z,6.4
2022-12-27T06:42:22.739Z,5.8
2022-12-27T06:47:43.401Z,5.8
2022-12-27T06:53:37.425Z,5.4
2022-12-27T06:59:09.565Z,5.3
2022-12-27T07:04:29.497Z,5.4
2022-12-27T07:09:57.942Z,5.1
2022-12-27T07:15:45.075Z,5.1
2022-12-27T07:21:04.806Z,5
2022-12-27T07:26:44.336Z,5.3
2022-12-27T07:32:04.190Z,5.3
2022-12-27T07:37:44.778Z,5.5
2022-12-27T07:43:15.104Z,6
2022-12-27T07:48:37.444Z,6.4
2022-12-27T07:54:05.590Z,6.5
2022-12-27T07:59:38.156Z,6.4
2022-12-27T08:05:24.451Z,6.3
2022-12-27T08:10:58.279Z,6.6
2022-12-27T08:16:32.507Z,7.1
2022-12-27T08:22:06.768Z,7.5
2022-12-27T08:27:19.293Z,8.7
2022-12-27T08:32:54.087Z,8.1
2022-12-27T08:38:30.411Z,7.6
2022-12-27T08:43:53.454Z,7.6
2022-12-27T08:49:51.628Z,7.5
2022-12-27T08:55:00.169Z,7.2
2022-12-27T09:00:55.373Z,7
2022-12-27T09:06:06.701Z,6.9
2022-12-27T09:12:02.857Z,6.8
2022-12-27T09:22:57.980Z,7
2022-12-27T09:28:39.009Z,7.1
2022-12-27T09:34:09.049Z,7.1
2022-12-27T09:39:22.084Z,7.2
2022-12-27T09:44:53.837Z,7
2022-12-27T09:50:23.871Z,7
2022-12-27T09:56:07.737Z,7.1
2022-12-27T10:01:56.180Z,7.2
2022-12-27T10:07:25.108Z,7.2
2022-12-27T10:12:39.951Z,7.3
2022-12-27T10:18:16.344Z,7.4
2022-12-27T10:23:56.032Z,7.4
2022-12-27T10:29:31.904Z,7.7
2022-12-27T10:34:59.901Z,7.6
2022-12-27T10:40:42.376Z,7.5
2022-12-27T11:58:19.093Z,8.1
2022-12-27T13:21:55.487Z,8.3
2022-12-27T13:33:13.713Z,8.3
2022-12-27T13:38:54.073Z,8.2
2022-12-27T13:44:05.124Z,8
2022-12-27T14:00:59.798Z,8
2022-12-27T14:06:30.958Z,7.9
2022-12-27T14:12:04.648Z,7.9
2022-12-27T14:17:25.425Z,7.9
2022-12-27T14:23:08.783Z,7.8
2022-12-27T14:28:28.895Z,7.8
2022-12-27T14:33:58.549Z,7.9
2022-12-27T14:39:38.197Z,8.4
2022-12-27T14:44:58.269Z,8.2
2022-12-27T14:50:44.952Z,8
2022-12-27T14:56:07.176Z,7.9
2022-12-27T15:01:57.465Z,7.5
2022-12-27T15:07:16.751Z,7.3
2022-12-27T15:12:50.012Z,7.2
2022-12-27T15:18:16.568Z,7
2022-12-27T15:24:11.283Z,6.8
2022-12-27T15:29:39.251Z,6.7
2022-12-27T15:35:14.522Z,6.6
2022-12-27T15:51:32.201Z,6.7
2022-12-27T16:08:11.294Z,6.6
2022-12-27T16:13:57.295Z,6.6
2022-12-27T16:19:07.293Z,6.5
2022-12-27T16:30:22.019Z,6.5
2022-12-27T16:35:52.103Z,6.5
2022-12-27T16:41:16.588Z,6.5
2022-12-27T16:47:09.096Z,6.6
2022-12-27T16:52:47.707Z,6.5
2022-12-27T16:57:55.827Z,6.6
2022-12-27T17:03:45.691Z,6.4
2022-12-27T17:08:59.460Z,6.3
2022-12-27T17:14:46.655Z,6.3
2022-12-27T17:20:10.534Z,6.3
2022-12-27T17:25:54.427Z,6.3
2022-12-27T17:31:22.717Z,6.2
2022-12-27T17:42:07.571Z,6.2
2022-12-27T17:47:48.075Z,6
2022-12-27T17:53:29.311Z,5.8
2022-12-27T17:58:45.212Z,5.7
2022-12-27T18:04:21.602Z,5.7
2022-12-27T18:10:03.549Z,5.6
2022-12-27T18:21:07.964Z,5.3
2022-12-27T18:26:45.589Z,5.4
2022-12-27T18:31:55.039Z,5
2022-12-27T18:37:40.930Z,4.9
2022-12-27T18:43:12.545Z,5
2022-12-27T18:48:50.141Z,5.1
2022-12-27T18:54:08.847Z,5.2
2022-12-27T18:59:54.806Z,5.3
2022-12-27T19:05:03.837Z,5.4
2022-12-27T19:10:52.816Z,5.4
2022-12-27T19:16:32.325Z,5.3
2022-12-27T19:21:52.941Z,5.5
2022-12-27T19:27:21.427Z,5.4
2022-12-27T19:32:46.677Z,5.2
2022-12-27T19:38:21.798Z,4.6
2022-12-27T19:44:04.277Z,4.6
2022-12-27T19:49:42.452Z,4.6
2022-12-27T19:55:14.557Z,4.8
2022-12-27T20:00:36.468Z,4.7
2022-12-27T20:06:18.853Z,4.8
2022-12-27T23:03:16.269Z,2.9
2022-12-27T23:09:01.167Z,2.7
2022-12-27T23:14:44.835Z,2.8
2022-12-27T23:19:52.091Z,2.6
2022-12-27T23:25:22.699Z,2.6
2022-12-27T23:31:15.464Z,2.8
2022-12-27T23:36:36.507Z,2.9
2022-12-27T23:41:57.147Z,3.1
2022-12-27T23:47:44.375Z,3.3
2022-12-27T23:53:16.381Z,3.2
2022-12-27T23:58:50.728Z,3
